sensor_id;sensor_type;location;lat;lon;timestamp;P1;durP1;ratioP1;P2;durP2;ratioP2
9657;SDS011;4867;48.112;11.622;2024-03-07T00:01:30;15.70;;;14.10;;
9657;SDS011;4867;48.112;11.622;2024-03-07T00:04:02;15.37;;;13.77;;
9657;SDS011;4867;48.112;11.622;2024-03-07T00:06:40;15.67;;;14.07;;
9657;SDS011;4867;48.112;11.622;2024-03-07T00:09:09;16.07;;;14.47;;
9657;SDS011;4867;48.112;11.622;2024-03-07T00:11:39;14.60;;;13.27;;
9657;SDS011;4867;48.112;11.622;2024-03-07T00:14:09;15.30;;;13.83;;
9657;SDS011;4867;48.112;11.622;2024-03-07T00:16:38;16.50;;;14.80;;
9657;SDS011;4867;48.112;11.622;2024-03-07T00:19:15;15.63;;;14.10;;
9657;SDS011;4867;48.112;11.622;2024-03-07T00:21:46;16.60;;;14.90;;
9657;SDS011;4867;48.112;11.622;2024-03-07T00:24:18;16.73;;;15.03;;
9657;SDS011;4867;48.112;11.622;2024-03-07T00:26:56;18.10;;;16.30;;
9657;SDS011;4867;48.112;11.622;2024-03-07T00:29:27;17.00;;;15.27;;
9657;SDS011;4867;48.112;11.622;2024-03-07T00:31:59;17.33;;;15.63;;
9657;SDS011;4867;48.112;11.622;2024-03-07T00:34:28;18.70;;;16.73;;
9657;SDS011;4867;48.112;11.622;2024-03-07T00:36:57;16.97;;;15.23;;
9657;SDS011;4867;48.112;11.622;2024-03-07T00:39:39;20.10;;;17.33;;
9657;SDS011;4867;48.112;11.622;2024-03-07T00:42:07;18.70;;;16.70;;
9657;SDS011;4867;48.112;11.622;2024-03-07T00:44:47;18.23;;;16.40;;
9657;SDS011;4867;48.112;11.622;2024-03-07T00:47:24;19.03;;;16.90;;
9657;SDS011;4867;48.112;11.622;2024-03-07T00:49:55;18.97;;;17.07;;
9657;SDS011;4867;48.112;11.622;2024-03-07T00:52:26;18.17;;;16.27;;
9657;SDS011;4867;48.112;11.622;2024-03-07T00:55:44;20.20;;;18.03;;
9657;SDS011;4867;48.112;11.622;2024-03-07T00:58:14;20.30;;;18.10;;
9657;SDS011;4867;48.112;11.622;2024-03-07T01:00:41;22.33;;;18.50;;
9657;SDS011;4867;48.112;11.622;2024-03-07T01:03:14;22.07;;;19.37;;
9657;SDS011;4867;48.112;11.622;2024-03-07T01:06:10;23.93;;;18.93;;
9657;SDS011;4867;48.112;11.622;2024-03-07T01:08:39;24.87;;;20.03;;
9657;SDS011;4867;48.112;11.622;2024-03-07T01:11:10;27.57;;;21.00;;
9657;SDS011;4867;48.112;11.622;2024-03-07T01:13:41;26.27;;;20.10;;
9657;SDS011;4867;48.112;11.622;2024-03-07T01:16:12;26.13;;;20.87;;
9657;SDS011;4867;48.112;11.622;2024-03-07T01:18:45;23.77;;;20.50;;
9657;SDS011;4867;48.112;11.622;2024-03-07T01:21:16;25.90;;;20.13;;
9657;SDS011;4867;48.112;11.622;2024-03-07T01:23:51;26.43;;;21.43;;
9657;SDS011;4867;48.112;11.622;2024-03-07T01:26:20;27.90;;;20.60;;
9657;SDS011;4867;48.112;11.622;2024-03-07T01:28:55;28.37;;;21.87;;
9657;SDS011;4867;48.112;11.622;2024-03-07T01:31:29;25.30;;;20.97;;
9657;SDS011;4867;48.112;11.622;2024-03-07T01:34:02;27.10;;;21.83;;
9657;SDS011;4867;48.112;11.622;2024-03-07T01:36:38;27.93;;;21.17;;
9657;SDS011;4867;48.112;11.622;2024-03-07T01:39:10;28.20;;;21.60;;
9657;SDS011;4867;48.112;11.622;2024-03-07T01:41:40;26.67;;;21.93;;
9657;SDS011;4867;48.112;11.622;2024-03-07T01:44:10;29.63;;;23.57;;
9657;SDS011;4867;48.112;11.622;2024-03-07T01:46:39;29.73;;;23.47;;
9657;SDS011;4867;48.112;11.622;2024-03-07T01:49:11;33.17;;;23.73;;
9657;SDS011;4867;48.112;11.622;2024-03-07T01:51:53;30.03;;;23.57;;
9657;SDS011;4867;48.112;11.622;2024-03-07T01:54:27;28.73;;;23.23;;
9657;SDS011;4867;48.112;11.622;2024-03-07T01:56:56;30.07;;;23.13;;
9657;SDS011;4867;48.112;11.622;2024-03-07T01:59:31;37.63;;;26.47;;
9657;SDS011;4867;48.112;11.622;2024-03-07T02:02:07;32.83;;;24.53;;
9657;SDS011;4867;48.112;11.622;2024-03-07T02:04:48;34.70;;;26.43;;
9657;SDS011;4867;48.112;11.622;2024-03-07T02:07:20;30.33;;;24.93;;
9657;SDS011;4867;48.112;11.622;2024-03-07T02:10:13;30.87;;;23.93;;
9657;SDS011;4867;48.112;11.622;2024-03-07T02:12:54;31.93;;;26.00;;
9657;SDS011;4867;48.112;11.622;2024-03-07T02:15:22;32.90;;;24.63;;
9657;SDS011;4867;48.112;11.622;2024-03-07T02:17:50;31.37;;;24.53;;
9657;SDS011;4867;48.112;11.622;2024-03-07T02:20:21;32.67;;;25.83;;
9657;SDS011;4867;48.112;11.622;2024-03-07T02:23:04;34.77;;;25.90;;
9657;SDS011;4867;48.112;11.622;2024-03-07T02:25:38;32.37;;;24.93;;
9657;SDS011;4867;48.112;11.622;2024-03-07T02:28:08;38.77;;;26.90;;
9657;SDS011;4867;48.112;11.622;2024-03-07T02:30:36;33.70;;;26.10;;
9657;SDS011;4867;48.112;11.622;2024-03-07T02:33:07;35.83;;;26.80;;
9657;SDS011;4867;48.112;11.622;2024-03-07T02:35:37;36.73;;;27.57;;
9657;SDS011;4867;48.112;11.622;2024-03-07T02:38:06;34.87;;;26.33;;
9657;SDS011;4867;48.112;11.622;2024-03-07T02:40:44;39.73;;;27.47;;
9657;SDS011;4867;48.112;11.622;2024-03-07T02:43:20;39.70;;;28.90;;
9657;SDS011;4867;48.112;11.622;2024-03-07T02:45:51;39.97;;;28.87;;
9657;SDS011;4867;48.112;11.622;2024-03-07T02:48:20;41.43;;;29.67;;
9657;SDS011;4867;48.112;11.622;2024-03-07T02:50:58;38.67;;;27.90;;
9657;SDS011;4867;48.112;11.622;2024-03-07T02:54:25;34.03;;;26.93;;
9657;SDS011;4867;48.112;11.622;2024-03-07T02:56:54;36.97;;;27.37;;
9657;SDS011;4867;48.112;11.622;2024-03-07T02:59:23;34.67;;;27.83;;
9657;SDS011;4867;48.112;11.622;2024-03-07T03:01:54;36.57;;;28.13;;
9657;SDS011;4867;48.112;11.622;2024-03-07T03:04:25;33.27;;;26.40;;
9657;SDS011;4867;48.112;11.622;2024-03-07T03:06:52;38.53;;;28.30;;
9657;SDS011;4867;48.112;11.622;2024-03-07T03:09:28;33.63;;;26.27;;
9657;SDS011;4867;48.112;11.622;2024-03-07T03:11:58;36.53;;;28.93;;
9657;SDS011;4867;48.112;11.622;2024-03-07T03:14:27;34.60;;;28.13;;
9657;SDS011;4867;48.112;11.622;2024-03-07T03:17:01;36.30;;;28.23;;
9657;SDS011;4867;48.112;11.622;2024-03-07T03:19:31;33.23;;;27.83;;
9657;SDS011;4867;48.112;11.622;2024-03-07T03:22:05;37.67;;;31.03;;
9657;SDS011;4867;48.112;11.622;2024-03-07T03:24:36;40.30;;;33.27;;
9657;SDS011;4867;48.112;11.622;2024-03-07T03:27:09;43.63;;;33.80;;
9657;SDS011;4867;48.112;11.622;2024-03-07T03:33:19;39.87;;;33.63;;
9657;SDS011;4867;48.112;11.622;2024-03-07T03:35:51;40.27;;;33.43;;
9657;SDS011;4867;48.112;11.622;2024-03-07T03:38:36;38.33;;;34.00;;
9657;SDS011;4867;48.112;11.622;2024-03-07T03:41:08;40.93;;;34.30;;
9657;SDS011;4867;48.112;11.622;2024-03-07T03:43:44;41.37;;;35.33;;
9657;SDS011;4867;48.112;11.622;2024-03-07T03:46:13;39.07;;;34.10;;
9657;SDS011;4867;48.112;11.622;2024-03-07T03:48:54;42.03;;;35.03;;
9657;SDS011;4867;48.112;11.622;2024-03-07T03:51:26;45.73;;;36.23;;
9657;SDS011;4867;48.112;11.622;2024-03-07T03:53:59;45.93;;;35.87;;
9657;SDS011;4867;48.112;11.622;2024-03-07T03:56:27;45.47;;;34.40;;
9657;SDS011;4867;48.112;11.622;2024-03-07T03:59:09;41.93;;;34.83;;
9657;SDS011;4867;48.112;11.622;2024-03-07T04:01:37;45.00;;;37.23;;
9657;SDS011;4867;48.112;11.622;2024-03-07T04:04:04;44.73;;;35.93;;
9657;SDS011;4867;48.112;11.622;2024-03-07T04:06:32;41.63;;;35.97;;
9657;SDS011;4867;48.112;11.622;2024-03-07T04:09:00;45.57;;;35.80;;
9657;SDS011;4867;48.112;11.622;2024-03-07T04:11:34;43.53;;;36.73;;
9657;SDS011;4867;48.112;11.622;2024-03-07T04:14:09;44.40;;;35.03;;
9657;SDS011;4867;48.112;11.622;2024-03-07T04:16:53;42.90;;;36.30;;
9657;SDS011;4867;48.112;11.622;2024-03-07T04:19:24;41.03;;;35.33;;
9657;SDS011;4867;48.112;11.622;2024-03-07T04:22:00;43.80;;;35.20;;
9657;SDS011;4867;48.112;11.622;2024-03-07T04:24:39;45.43;;;36.83;;
9657;SDS011;4867;48.112;11.622;2024-03-07T04:27:10;46.17;;;36.00;;
9657;SDS011;4867;48.112;11.622;2024-03-07T04:29:42;40.90;;;35.07;;
9657;SDS011;4867;48.112;11.622;2024-03-07T04:32:10;45.10;;;37.43;;
9657;SDS011;4867;48.112;11.622;2024-03-07T04:34:43;45.53;;;36.57;;
9657;SDS011;4867;48.112;11.622;2024-03-07T04:37:15;47.83;;;36.07;;
9657;SDS011;4867;48.112;11.622;2024-03-07T04:39:44;44.73;;;35.53;;
9657;SDS011;4867;48.112;11.622;2024-03-07T04:42:15;50.33;;;37.70;;
9657;SDS011;4867;48.112;11.622;2024-03-07T04:44:46;41.20;;;34.37;;
9657;SDS011;4867;48.112;11.622;2024-03-07T04:47:14;44.60;;;37.10;;
9657;SDS011;4867;48.112;11.622;2024-03-07T04:49:57;43.23;;;36.63;;
9657;SDS011;4867;48.112;11.622;2024-03-07T04:52:25;46.10;;;38.87;;
9657;SDS011;4867;48.112;11.622;2024-03-07T04:54:57;46.63;;;36.93;;
9657;SDS011;4867;48.112;11.622;2024-03-07T04:57:31;44.53;;;36.83;;
9657;SDS011;4867;48.112;11.622;2024-03-07T04:59:59;43.33;;;37.17;;
9657;SDS011;4867;48.112;11.622;2024-03-07T05:02:36;46.27;;;37.27;;
9657;SDS011;4867;48.112;11.622;2024-03-07T05:05:18;45.40;;;38.23;;
9657;SDS011;4867;48.112;11.622;2024-03-07T05:07:51;48.23;;;37.87;;
9657;SDS011;4867;48.112;11.622;2024-03-07T05:10:25;43.40;;;37.93;;
9657;SDS011;4867;48.112;11.622;2024-03-07T05:12:58;46.07;;;37.77;;
9657;SDS011;4867;48.112;11.622;2024-03-07T05:15:37;47.67;;;39.83;;
9657;SDS011;4867;48.112;11.622;2024-03-07T05:18:09;47.20;;;38.77;;
9657;SDS011;4867;48.112;11.622;2024-03-07T05:20:40;51.70;;;40.27;;
9657;SDS011;4867;48.112;11.622;2024-03-07T05:23:19;47.67;;;39.30;;
9657;SDS011;4867;48.112;11.622;2024-03-07T05:25:49;46.70;;;39.57;;
9657;SDS011;4867;48.112;11.622;2024-03-07T05:28:26;45.27;;;37.87;;
9657;SDS011;4867;48.112;11.622;2024-03-07T05:31:10;45.07;;;37.73;;
9657;SDS011;4867;48.112;11.622;2024-03-07T05:33:42;53.90;;;41.63;;
9657;SDS011;4867;48.112;11.622;2024-03-07T05:36:15;49.83;;;40.30;;
9657;SDS011;4867;48.112;11.622;2024-03-07T05:38:44;48.90;;;40.13;;
9657;SDS011;4867;48.112;11.622;2024-03-07T05:41:21;47.57;;;39.20;;
9657;SDS011;4867;48.112;11.622;2024-03-07T05:43:49;49.80;;;40.37;;
9657;SDS011;4867;48.112;11.622;2024-03-07T05:46:20;48.87;;;40.03;;
9657;SDS011;4867;48.112;11.622;2024-03-07T05:48:50;49.13;;;40.43;;
9657;SDS011;4867;48.112;11.622;2024-03-07T05:51:25;50.83;;;40.03;;
9657;SDS011;4867;48.112;11.622;2024-03-07T05:53:57;50.40;;;40.27;;
9657;SDS011;4867;48.112;11.622;2024-03-07T05:56:39;50.97;;;40.70;;
9657;SDS011;4867;48.112;11.622;2024-03-07T05:59:23;53.37;;;42.20;;
9657;SDS011;4867;48.112;11.622;2024-03-07T06:01:52;50.60;;;41.67;;
9657;SDS011;4867;48.112;11.622;2024-03-07T06:04:21;52.17;;;41.10;;
9657;SDS011;4867;48.112;11.622;2024-03-07T06:06:58;53.60;;;42.00;;
9657;SDS011;4867;48.112;11.622;2024-03-07T06:09:33;51.60;;;41.83;;
9657;SDS011;4867;48.112;11.622;2024-03-07T06:12:02;51.83;;;42.90;;
9657;SDS011;4867;48.112;11.622;2024-03-07T06:14:53;53.33;;;41.87;;
9657;SDS011;4867;48.112;11.622;2024-03-07T06:17:23;50.10;;;41.27;;
9657;SDS011;4867;48.112;11.622;2024-03-07T06:19:55;53.23;;;41.73;;
9657;SDS011;4867;48.112;11.622;2024-03-07T06:22:23;51.83;;;42.47;;
9657;SDS011;4867;48.112;11.622;2024-03-07T06:24:51;49.57;;;41.03;;
9657;SDS011;4867;48.112;11.622;2024-03-07T06:27:24;54.23;;;43.57;;
9657;SDS011;4867;48.112;11.622;2024-03-07T06:29:56;49.93;;;41.67;;
9657;SDS011;4867;48.112;11.622;2024-03-07T06:32:41;54.07;;;42.83;;
9657;SDS011;4867;48.112;11.622;2024-03-07T06:35:09;51.57;;;41.97;;
9657;SDS011;4867;48.112;11.622;2024-03-07T06:37:38;51.67;;;41.73;;
9657;SDS011;4867;48.112;11.622;2024-03-07T06:40:09;52.63;;;41.77;;
9657;SDS011;4867;48.112;11.622;2024-03-07T06:42:37;51.03;;;41.20;;
9657;SDS011;4867;48.112;11.622;2024-03-07T06:45:21;50.83;;;40.30;;
9657;SDS011;4867;48.112;11.622;2024-03-07T06:48:30;49.97;;;41.73;;
9657;SDS011;4867;48.112;11.622;2024-03-07T06:51:08;49.83;;;41.53;;
9657;SDS011;4867;48.112;11.622;2024-03-07T06:53:38;49.93;;;41.60;;
9657;SDS011;4867;48.112;11.622;2024-03-07T06:56:09;50.60;;;41.73;;
9657;SDS011;4867;48.112;11.622;2024-03-07T06:58:38;50.77;;;41.83;;
9657;SDS011;4867;48.112;11.622;2024-03-07T07:01:06;48.63;;;40.60;;
9657;SDS011;4867;48.112;11.622;2024-03-07T07:03:39;49.47;;;40.70;;
9657;SDS011;4867;48.112;11.622;2024-03-07T07:06:11;52.33;;;41.53;;
9657;SDS011;4867;48.112;11.622;2024-03-07T07:08:57;53.37;;;41.40;;
9657;SDS011;4867;48.112;11.622;2024-03-07T07:11:27;50.90;;;41.63;;
9657;SDS011;4867;48.112;11.622;2024-03-07T07:14:02;51.70;;;40.57;;
9657;SDS011;4867;48.112;11.622;2024-03-07T07:16:32;51.03;;;39.93;;
9657;SDS011;4867;48.112;11.622;2024-03-07T07:19:02;48.97;;;41.50;;
9657;SDS011;4867;48.112;11.622;2024-03-07T07:21:40;46.43;;;39.30;;
9657;SDS011;4867;48.112;11.622;2024-03-07T07:24:09;50.90;;;40.60;;
9657;SDS011;4867;48.112;11.622;2024-03-07T07:27:13;48.37;;;40.33;;
9657;SDS011;4867;48.112;11.622;2024-03-07T07:29:57;48.00;;;40.27;;
9657;SDS011;4867;48.112;11.622;2024-03-07T07:32:31;50.83;;;41.07;;
9657;SDS011;4867;48.112;11.622;2024-03-07T07:35:14;52.30;;;39.73;;
9657;SDS011;4867;48.112;11.622;2024-03-07T07:38:22;46.03;;;38.50;;
9657;SDS011;4867;48.112;11.622;2024-03-07T07:40:50;48.50;;;39.40;;
9657;SDS011;4867;48.112;11.622;2024-03-07T07:43:42;47.17;;;39.47;;
9657;SDS011;4867;48.112;11.622;2024-03-07T07:46:10;47.00;;;39.93;;
9657;SDS011;4867;48.112;11.622;2024-03-07T07:48:38;47.73;;;39.10;;
9657;SDS011;4867;48.112;11.622;2024-03-07T07:51:06;45.20;;;38.50;;
9657;SDS011;4867;48.112;11.622;2024-03-07T07:53:38;45.77;;;38.70;;
9657;SDS011;4867;48.112;11.622;2024-03-07T07:56:07;46.07;;;39.30;;
9657;SDS011;4867;48.112;11.622;2024-03-07T07:58:44;47.63;;;39.73;;
9657;SDS011;4867;48.112;11.622;2024-03-07T08:01:15;50.50;;;39.77;;
9657;SDS011;4867;48.112;11.622;2024-03-07T08:03:48;46.23;;;39.70;;
9657;SDS011;4867;48.112;11.622;2024-03-07T08:06:16;47.03;;;39.53;;
9657;SDS011;4867;48.112;11.622;2024-03-07T08:08:46;48.00;;;39.23;;
9657;SDS011;4867;48.112;11.622;2024-03-07T08:11:20;47.23;;;38.63;;
9657;SDS011;4867;48.112;11.622;2024-03-07T08:13:48;47.43;;;39.10;;
9657;SDS011;4867;48.112;11.622;2024-03-07T08:16:17;49.03;;;39.47;;
9657;SDS011;4867;48.112;11.622;2024-03-07T08:18:45;51.23;;;40.97;;
9657;SDS011;4867;48.112;11.622;2024-03-07T08:21:13;44.97;;;39.20;;
9657;SDS011;4867;48.112;11.622;2024-03-07T08:24:06;51.87;;;39.57;;
9657;SDS011;4867;48.112;11.622;2024-03-07T08:26:38;46.20;;;38.20;;
9657;SDS011;4867;48.112;11.622;2024-03-07T08:29:14;45.43;;;37.63;;
9657;SDS011;4867;48.112;11.622;2024-03-07T08:31:43;44.03;;;37.93;;
9657;SDS011;4867;48.112;11.622;2024-03-07T08:34:13;48.67;;;39.23;;
9657;SDS011;4867;48.112;11.622;2024-03-07T08:36:40;43.87;;;37.00;;
9657;SDS011;4867;48.112;11.622;2024-03-07T08:39:15;45.40;;;37.83;;
9657;SDS011;4867;48.112;11.622;2024-03-07T08:41:45;46.07;;;38.80;;
9657;SDS011;4867;48.112;11.622;2024-03-07T08:44:16;47.40;;;38.27;;
9657;SDS011;4867;48.112;11.622;2024-03-07T08:46:44;45.77;;;37.23;;
9657;SDS011;4867;48.112;11.622;2024-03-07T08:49:12;43.20;;;35.87;;
9657;SDS011;4867;48.112;11.622;2024-03-07T08:51:45;43.37;;;36.57;;
9657;SDS011;4867;48.112;11.622;2024-03-07T08:54:12;41.10;;;36.03;;
9657;SDS011;4867;48.112;11.622;2024-03-07T08:56:40;47.13;;;37.40;;
9657;SDS011;4867;48.112;11.622;2024-03-07T08:59:08;47.27;;;37.77;;
9657;SDS011;4867;48.112;11.622;2024-03-07T09:01:42;42.67;;;36.27;;
9657;SDS011;4867;48.112;11.622;2024-03-07T09:04:13;48.07;;;38.77;;
9657;SDS011;4867;48.112;11.622;2024-03-07T09:06:47;46.80;;;37.90;;
9657;SDS011;4867;48.112;11.622;2024-03-07T09:09:14;46.10;;;38.03;;
9657;SDS011;4867;48.112;11.622;2024-03-07T09:11:48;47.03;;;37.73;;
9657;SDS011;4867;48.112;11.622;2024-03-07T09:14:17;46.17;;;37.57;;
9657;SDS011;4867;48.112;11.622;2024-03-07T09:16:45;43.93;;;35.17;;
9657;SDS011;4867;48.112;11.622;2024-03-07T09:19:15;44.80;;;36.57;;
9657;SDS011;4867;48.112;11.622;2024-03-07T09:21:46;46.00;;;36.53;;
9657;SDS011;4867;48.112;11.622;2024-03-07T09:24:16;41.57;;;35.10;;
9657;SDS011;4867;48.112;11.622;2024-03-07T09:26:51;41.13;;;34.47;;
9657;SDS011;4867;48.112;11.622;2024-03-07T09:29:21;41.30;;;35.80;;
9657;SDS011;4867;48.112;11.622;2024-03-07T09:31:49;44.20;;;35.03;;
9657;SDS011;4867;48.112;11.622;2024-03-07T09:34:19;42.37;;;36.13;;
9657;SDS011;4867;48.112;11.622;2024-03-07T09:36:48;42.53;;;35.63;;
9657;SDS011;4867;48.112;11.622;2024-03-07T09:39:16;41.80;;;34.67;;
9657;SDS011;4867;48.112;11.622;2024-03-07T09:41:44;42.37;;;34.10;;
9657;SDS011;4867;48.112;11.622;2024-03-07T09:44:14;40.77;;;34.37;;
9657;SDS011;4867;48.112;11.622;2024-03-07T09:46:50;38.90;;;34.47;;
9657;SDS011;4867;48.112;11.622;2024-03-07T09:49:19;43.17;;;34.17;;
9657;SDS011;4867;48.112;11.622;2024-03-07T09:51:49;40.30;;;34.03;;
9657;SDS011;4867;48.112;11.622;2024-03-07T09:54:24;42.90;;;33.93;;
9657;SDS011;4867;48.112;11.622;2024-03-07T09:56:54;40.73;;;34.87;;
9657;SDS011;4867;48.112;11.622;2024-03-07T09:59:26;40.33;;;33.40;;
9657;SDS011;4867;48.112;11.622;2024-03-07T10:01:56;40.37;;;33.63;;
9657;SDS011;4867;48.112;11.622;2024-03-07T10:04:28;43.83;;;35.37;;
9657;SDS011;4867;48.112;11.622;2024-03-07T10:06:58;39.73;;;33.97;;
9657;SDS011;4867;48.112;11.622;2024-03-07T10:09:26;40.30;;;34.53;;
9657;SDS011;4867;48.112;11.622;2024-03-07T10:11:58;41.03;;;33.97;;
9657;SDS011;4867;48.112;11.622;2024-03-07T10:14:31;39.23;;;33.43;;
9657;SDS011;4867;48.112;11.622;2024-03-07T10:17:02;42.20;;;35.43;;
9657;SDS011;4867;48.112;11.622;2024-03-07T10:19:30;41.77;;;34.97;;
9657;SDS011;4867;48.112;11.622;2024-03-07T10:21:59;40.87;;;34.90;;
9657;SDS011;4867;48.112;11.622;2024-03-07T10:24:29;42.77;;;35.00;;
9657;SDS011;4867;48.112;11.622;2024-03-07T10:26:58;40.17;;;34.07;;
9657;SDS011;4867;48.112;11.622;2024-03-07T10:29:28;44.37;;;36.23;;
9657;SDS011;4867;48.112;11.622;2024-03-07T10:31:56;42.67;;;34.83;;
9657;SDS011;4867;48.112;11.622;2024-03-07T10:34:33;40.97;;;33.83;;
9657;SDS011;4867;48.112;11.622;2024-03-07T10:37:01;41.10;;;33.47;;
9657;SDS011;4867;48.112;11.622;2024-03-07T10:39:32;39.37;;;33.57;;
9657;SDS011;4867;48.112;11.622;2024-03-07T10:42:00;37.57;;;31.03;;
9657;SDS011;4867;48.112;11.622;2024-03-07T10:44:34;35.23;;;30.13;;
9657;SDS011;4867;48.112;11.622;2024-03-07T10:47:08;35.97;;;29.97;;
9657;SDS011;4867;48.112;11.622;2024-03-07T10:53:03;36.93;;;29.87;;
9657;SDS011;4867;48.112;11.622;2024-03-07T10:55:41;33.67;;;28.63;;
9657;SDS011;4867;48.112;11.622;2024-03-07T11:01:07;33.00;;;29.07;;
9657;SDS011;4867;48.112;11.622;2024-03-07T11:03:38;33.13;;;27.40;;
9657;SDS011;4867;48.112;11.622;2024-03-07T11:06:08;32.03;;;28.43;;
9657;SDS011;4867;48.112;11.622;2024-03-07T11:08:40;34.50;;;29.03;;
9657;SDS011;4867;48.112;11.622;2024-03-07T11:11:09;33.80;;;28.40;;
9657;SDS011;4867;48.112;11.622;2024-03-07T11:13:38;34.33;;;28.93;;
9657;SDS011;4867;48.112;11.622;2024-03-07T11:16:06;34.90;;;29.00;;
9657;SDS011;4867;48.112;11.622;2024-03-07T11:18:37;34.67;;;28.80;;
9657;SDS011;4867;48.112;11.622;2024-03-07T11:21:07;35.97;;;29.77;;
9657;SDS011;4867;48.112;11.622;2024-03-07T11:24:07;32.83;;;28.83;;
9657;SDS011;4867;48.112;11.622;2024-03-07T11:26:37;32.37;;;28.87;;
9657;SDS011;4867;48.112;11.622;2024-03-07T11:29:27;34.00;;;29.50;;
9657;SDS011;4867;48.112;11.622;2024-03-07T11:32:28;33.37;;;28.93;;
9657;SDS011;4867;48.112;11.622;2024-03-07T11:35:03;31.20;;;27.87;;
9657;SDS011;4867;48.112;11.622;2024-03-07T11:37:48;30.63;;;26.97;;
9657;SDS011;4867;48.112;11.622;2024-03-07T11:43:04;32.27;;;28.77;;
9657;SDS011;4867;48.112;11.622;2024-03-07T11:45:33;33.93;;;28.60;;
9657;SDS011;4867;48.112;11.622;2024-03-07T11:48:05;35.07;;;29.63;;
9657;SDS011;4867;48.112;11.622;2024-03-07T11:50:36;33.63;;;27.73;;
9657;SDS011;4867;48.112;11.622;2024-03-07T11:53:08;33.63;;;28.67;;
9657;SDS011;4867;48.112;11.622;2024-03-07T11:55:37;31.27;;;27.50;;
9657;SDS011;4867;48.112;11.622;2024-03-07T12:00:52;30.33;;;27.00;;
9657;SDS011;4867;48.112;11.622;2024-03-07T12:03:31;30.33;;;27.13;;
9657;SDS011;4867;48.112;11.622;2024-03-07T12:06:12;31.80;;;27.53;;
9657;SDS011;4867;48.112;11.622;2024-03-07T12:08:42;33.70;;;27.80;;
9657;SDS011;4867;48.112;11.622;2024-03-07T12:11:12;30.73;;;26.60;;
9657;SDS011;4867;48.112;11.622;2024-03-07T12:13:50;31.53;;;26.63;;
9657;SDS011;4867;48.112;11.622;2024-03-07T12:16:22;28.30;;;23.87;;
9657;SDS011;4867;48.112;11.622;2024-03-07T12:19:35;26.37;;;23.53;;
9657;SDS011;4867;48.112;11.622;2024-03-07T12:22:03;27.73;;;24.73;;
9657;SDS011;4867;48.112;11.622;2024-03-07T12:24:40;31.17;;;26.93;;
9657;SDS011;4867;48.112;11.622;2024-03-07T12:27:18;33.70;;;28.40;;
9657;SDS011;4867;48.112;11.622;2024-03-07T12:29:48;33.63;;;29.50;;
9657;SDS011;4867;48.112;11.622;2024-03-07T12:32:20;32.40;;;28.80;;
9657;SDS011;4867;48.112;11.622;2024-03-07T12:34:48;37.13;;;31.03;;
9657;SDS011;4867;48.112;11.622;2024-03-07T12:37:15;36.73;;;30.43;;
9657;SDS011;4867;48.112;11.622;2024-03-07T12:39:46;32.33;;;28.27;;
9657;SDS011;4867;48.112;11.622;2024-03-07T12:42:17;34.43;;;28.23;;
9657;SDS011;4867;48.112;11.622;2024-03-07T12:44:46;31.60;;;27.50;;
9657;SDS011;4867;48.112;11.622;2024-03-07T12:47:14;30.60;;;26.37;;
9657;SDS011;4867;48.112;11.622;2024-03-07T12:49:43;31.57;;;26.73;;
9657;SDS011;4867;48.112;11.622;2024-03-07T12:52:11;33.33;;;26.57;;
9657;SDS011;4867;48.112;11.622;2024-03-07T12:54:42;28.97;;;25.87;;
9657;SDS011;4867;48.112;11.622;2024-03-07T12:57:10;29.27;;;25.27;;
9657;SDS011;4867;48.112;11.622;2024-03-07T12:59:38;31.23;;;25.90;;
9657;SDS011;4867;48.112;11.622;2024-03-07T13:02:09;30.60;;;26.13;;
9657;SDS011;4867;48.112;11.622;2024-03-07T13:04:41;30.90;;;26.53;;
9657;SDS011;4867;48.112;11.622;2024-03-07T13:07:11;31.47;;;27.03;;
9657;SDS011;4867;48.112;11.622;2024-03-07T13:09:43;31.97;;;26.37;;
9657;SDS011;4867;48.112;11.622;2024-03-07T13:12:11;28.90;;;25.17;;
9657;SDS011;4867;48.112;11.622;2024-03-07T13:14:41;31.10;;;26.70;;
9657;SDS011;4867;48.112;11.622;2024-03-07T13:17:11;30.30;;;26.40;;
9657;SDS011;4867;48.112;11.622;2024-03-07T13:19:43;30.43;;;26.53;;
9657;SDS011;4867;48.112;11.622;2024-03-07T13:22:15;31.23;;;26.53;;
9657;SDS011;4867;48.112;11.622;2024-03-07T13:24:43;34.20;;;27.93;;
9657;SDS011;4867;48.112;11.622;2024-03-07T13:27:11;33.07;;;27.80;;
9657;SDS011;4867;48.112;11.622;2024-03-07T13:29:41;36.43;;;29.63;;
9657;SDS011;4867;48.112;11.622;2024-03-07T13:32:10;33.87;;;28.43;;
9657;SDS011;4867;48.112;11.622;2024-03-07T13:34:44;36.43;;;28.67;;
9657;SDS011;4867;48.112;11.622;2024-03-07T13:37:12;34.87;;;30.17;;
9657;SDS011;4867;48.112;11.622;2024-03-07T13:39:45;31.40;;;28.00;;
9657;SDS011;4867;48.112;11.622;2024-03-07T13:42:14;28.77;;;25.63;;
9657;SDS011;4867;48.112;11.622;2024-03-07T13:44:46;28.83;;;25.57;;
9657;SDS011;4867;48.112;11.622;2024-03-07T13:47:14;28.60;;;24.87;;
9657;SDS011;4867;48.112;11.622;2024-03-07T13:49:42;28.67;;;24.40;;
9657;SDS011;4867;48.112;11.622;2024-03-07T13:52:13;29.23;;;25.50;;
9657;SDS011;4867;48.112;11.622;2024-03-07T13:54:47;26.87;;;23.40;;
9657;SDS011;4867;48.112;11.622;2024-03-07T14:00:27;27.30;;;23.47;;
9657;SDS011;4867;48.112;11.622;2024-03-07T14:32:23;34.63;;;28.70;;
9657;SDS011;4867;48.112;11.622;2024-03-07T14:34:57;34.33;;;29.07;;
9657;SDS011;4867;48.112;11.622;2024-03-07T14:37:37;32.73;;;28.17;;
9657;SDS011;4867;48.112;11.622;2024-03-07T14:40:14;32.17;;;28.30;;
9657;SDS011;4867;48.112;11.622;2024-03-07T14:42:46;33.90;;;28.50;;
9657;SDS011;4867;48.112;11.622;2024-03-07T14:45:17;32.17;;;27.67;;
9657;SDS011;4867;48.112;11.622;2024-03-07T14:47:49;30.50;;;26.77;;
9657;SDS011;4867;48.112;11.622;2024-03-07T14:50:19;32.57;;;27.90;;
9657;SDS011;4867;48.112;11.622;2024-03-07T14:52:50;32.70;;;27.80;;
9657;SDS011;4867;48.112;11.622;2024-03-07T14:55:17;32.43;;;27.57;;
9657;SDS011;4867;48.112;11.622;2024-03-07T14:57:46;30.23;;;26.23;;
9657;SDS011;4867;48.112;11.622;2024-03-07T15:00:15;34.53;;;28.17;;
9657;SDS011;4867;48.112;11.622;2024-03-07T15:02:49;35.40;;;27.83;;
9657;SDS011;4867;48.112;11.622;2024-03-07T15:05:17;31.77;;;27.37;;
9657;SDS011;4867;48.112;11.622;2024-03-07T15:07:48;34.77;;;28.90;;
9657;SDS011;4867;48.112;11.622;2024-03-07T15:10:17;34.13;;;27.97;;
9657;SDS011;4867;48.112;11.622;2024-03-07T15:12:48;31.07;;;27.00;;
9657;SDS011;4867;48.112;11.622;2024-03-07T15:15:16;29.40;;;25.80;;
9657;SDS011;4867;48.112;11.622;2024-03-07T15:17:46;35.43;;;28.33;;
9657;SDS011;4867;48.112;11.622;2024-03-07T15:20:14;31.93;;;26.30;;
9657;SDS011;4867;48.112;11.622;2024-03-07T15:22:52;33.67;;;26.37;;
9657;SDS011;4867;48.112;11.622;2024-03-07T15:25:20;31.53;;;25.60;;
9657;SDS011;4867;48.112;11.622;2024-03-07T15:27:50;29.20;;;24.80;;
9657;SDS011;4867;48.112;11.622;2024-03-07T15:30:19;29.00;;;23.70;;
9657;SDS011;4867;48.112;11.622;2024-03-07T15:32:47;28.83;;;23.50;;
9657;SDS011;4867;48.112;11.622;2024-03-07T15:35:17;27.93;;;24.13;;
9657;SDS011;4867;48.112;11.622;2024-03-07T15:37:45;27.23;;;23.23;;
9657;SDS011;4867;48.112;11.622;2024-03-07T15:40:16;25.33;;;21.97;;
9657;SDS011;4867;48.112;11.622;2024-03-07T15:42:47;22.43;;;20.03;;
9657;SDS011;4867;48.112;11.622;2024-03-07T15:45:20;20.77;;;18.57;;
9657;SDS011;4867;48.112;11.622;2024-03-07T15:47:53;21.43;;;18.53;;
9657;SDS011;4867;48.112;11.622;2024-03-07T15:50:22;19.47;;;17.43;;
9657;SDS011;4867;48.112;11.622;2024-03-07T15:52:50;23.97;;;21.37;;
9657;SDS011;4867;48.112;11.622;2024-03-07T15:55:19;23.70;;;20.27;;